createdAt,value
2022-08-05T00:00:52.044Z,99791.05
2022-08-05T00:01:54.395Z,99793.06
2022-08-05T00:02:56.765Z,99795.57
2022-08-05T00:04:00.688Z,99796.89
2022-08-05T00:05:05.675Z,99793.20
2022-08-05T00:06:28.933Z,99796.53
2022-08-05T00:07:21.830Z,99794.42
2022-08-05T00:08:32.476Z,99796.06
2022-08-05T00:09:20.250Z,99799.92
2022-08-05T00:10:27.105Z,99799.16
2022-08-05T00:11:34.591Z,99803.74
2022-08-05T00:12:32.362Z,99795.57
2022-08-05T00:13:39.221Z,99787.66
2022-08-05T00:14:41.030Z,99780.37
2022-08-05T00:15:55.496Z,99788.66
2022-08-05T00:16:53.755Z,99778.56
2022-08-05T00:17:51.774Z,99778.80
2022-08-05T00:18:54.447Z,99780.34
2022-08-05T00:20:02.527Z,99784.76
2022-08-05T00:21:00.699Z,99774.02
2022-08-05T00:22:04.369Z,99780.25
2022-08-05T00:23:12.943Z,99773.30
2022-08-05T00:24:16.369Z,99772.24
2022-08-05T00:25:17.014Z,99777.12
2022-08-05T00:26:20.689Z,99778.94
2022-08-05T00:27:35.766Z,99777.12
2022-08-05T00:28:29.617Z,99773.33
2022-08-05T00:29:38.179Z,99768.88
2022-08-05T00:30:36.401Z,99772.60
2022-08-05T00:31:53.156Z,99774.75
2022-08-05T00:32:45.324Z,99776.16
2022-08-05T00:34:56.994Z,99773.79
2022-08-05T00:35:06.826Z,99777.84
2022-08-05T00:36:16.487Z,99774.02
2022-08-05T00:37:10.726Z,99779.42
2022-08-05T00:38:05.827Z,99773.33
2022-08-05T00:39:13.708Z,99780.25
2022-08-05T00:40:17.866Z,99767.56
2022-08-05T00:41:51.812Z,99767.56
2022-08-05T00:42:38.773Z,99764.80
2022-08-05T00:43:47.157Z,99769.94
2022-08-05T00:44:44.786Z,99764.20
2022-08-05T00:45:47.280Z,99764.66
2022-08-05T00:46:54.183Z,99754.84
2022-08-05T00:48:04.905Z,99756.03
2022-08-05T00:48:58.150Z,99765.62
2022-08-05T00:50:00.539Z,99761.06
2022-08-05T00:51:08.999Z,99763.94
2022-08-05T00:52:06.645Z,99764.70
2022-08-05T00:53:44.745Z,99756.30
2022-08-05T00:54:14.138Z,99760.71
2022-08-05T00:55:18.968Z,99751.03
2022-08-05T00:56:23.090Z,99755.44
2022-08-05T00:57:38.399Z,99759.03
2022-08-05T00:58:29.930Z,99763.48
2022-08-05T00:59:34.487Z,99768.75
2022-08-05T01:00:36.038Z,99765.03
2022-08-05T01:01:42.645Z,99760.84
2022-08-05T01:02:44.569Z,99767.44
2022-08-05T01:03:50.073Z,99761.08
2022-08-05T01:04:50.960Z,99763.14
2022-08-05T01:05:54.610Z,99762.08
2022-08-05T01:06:59.177Z,99763.76
2022-08-05T01:08:41.801Z,99769.03
2022-08-05T01:09:05.563Z,99765.41
2022-08-05T01:10:12.074Z,99763.98
2022-08-05T01:11:22.182Z,99762.30
2022-08-05T01:12:29.812Z,99766.49
2022-08-05T01:13:58.700Z,99759.08
2022-08-05T01:15:35.037Z,99766.98
2022-08-05T01:16:38.861Z,99765.91
2022-08-05T01:17:53.764Z,99769.02
2022-08-05T01:18:58.435Z,99765.91
2022-08-05T01:20:15.794Z,99762.33
2022-08-05T01:21:43.613Z,99765.91
2022-08-05T01:23:24.784Z,99772.27
2022-08-05T01:24:48.968Z,99764.46
2022-08-05T01:26:18.558Z,99761.12
2022-08-05T01:27:50.636Z,99759.19
2022-08-05T01:29:00.612Z,99754.66
2022-08-05T01:30:17.778Z,99774.98
2022-08-05T01:31:16.539Z,99765.41
2022-08-05T01:32:22.842Z,99777.75
2022-08-05T01:33:28.481Z,99768.30
2022-08-05T01:34:48.403Z,99770.45
2022-08-05T01:35:54.967Z,99768.52
2022-08-05T01:37:25.009Z,99772.83
2022-08-05T01:38:29.958Z,99764.94
2022-08-05T01:39:47.033Z,99773.09
2022-08-05T01:40:40.802Z,99765.56
2022-08-05T01:41:45.814Z,99766.73
2022-08-05T01:42:52.496Z,99761.11
2022-08-05T01:43:55.839Z,99761.70
2022-08-05T01:45:02.236Z,99769.52
2022-08-05T01:46:07.474Z,99762.77
2022-08-05T01:47:11.938Z,99764.72
2022-08-05T01:48:17.813Z,99758.72
2022-08-05T01:49:24.893Z,99771.89
2022-08-05T01:50:33.504Z,99764.59
2022-08-05T01:51:38.796Z,99770.67
2022-08-05T01:52:44.128Z,99773.22
2022-08-05T01:53:57.792Z,99770.45
2022-08-05T01:55:00.515Z,99766.86
2022-08-05T01:56:04.328Z,99775.72
2022-08-05T01:58:10.132Z,99771.87
2022-08-05T01:58:16.075Z,99770.22
2022-08-05T01:59:23.004Z,99770.67
2022-08-05T02:00:29.857Z,99782.89
2022-08-05T02:01:39.960Z,99776.45
2022-08-05T02:02:53.636Z,99773.33
2022-08-05T02:03:52.994Z,99780.87
2022-08-05T02:05:00.911Z,99780.73
2022-08-05T02:06:33.492Z,99781.83
2022-08-05T02:07:12.176Z,99788.05
2022-08-05T02:08:28.956Z,99782.05
2022-08-05T02:09:21.717Z,99781.36
2022-08-05T02:10:28.765Z,99786.50
2022-08-05T02:11:52.154Z,99781.95
2022-08-05T02:12:57.554Z,99779.78
2022-08-05T02:14:04.243Z,99783.97
2022-08-05T02:15:15.546Z,99784.10
2022-08-05T02:16:27.610Z,99776.42
2022-08-05T02:18:32.992Z,99770.66
2022-08-05T02:18:44.920Z,99777.38
2022-08-05T02:19:52.214Z,99782.20
2022-08-05T02:21:15.365Z,99782.42
2022-08-05T02:22:29.995Z,99779.42
2022-08-05T02:23:36.899Z,99780.50
2022-08-05T02:24:44.426Z,99775.70
2022-08-05T02:25:50.685Z,99783.97
2022-08-05T02:26:56.578Z,99780.97
2022-08-05T02:28:00.617Z,99782.89
2022-08-05T02:29:05.608Z,99778.47
2022-08-05T02:30:12.605Z,99777.02
2022-08-05T02:31:21.291Z,99774.02
2022-08-05T02:32:30.564Z,99785.88
2022-08-05T02:33:38.105Z,99778.11
2022-08-05T02:34:39.185Z,99785.52
2022-08-05T02:35:50.977Z,99785.29
2022-08-05T02:36:52.680Z,99786.71
2022-08-05T02:37:59.108Z,99786.48
2022-08-05T02:39:08.790Z,99786.48
2022-08-05T02:40:10.423Z,99786.21
2022-08-05T02:41:17.256Z,99786.21
2022-08-05T02:42:22.527Z,99785.75
2022-08-05T02:43:25.845Z,99787.39
2022-08-05T02:44:31.063Z,99788.12
2022-08-05T02:45:51.564Z,99786.20
2022-08-05T02:46:53.376Z,99781.38
2022-08-05T02:48:07.532Z,99777.79
2022-08-05T02:48:54.396Z,99779.47
2022-08-05T02:49:57.412Z,99778.97
2022-08-05T02:51:02.950Z,99781.34
2022-08-05T02:52:08.647Z,99774.14
2022-08-05T02:53:18.771Z,99778.33
2022-08-05T02:54:35.881Z,99779.63
2022-08-05T02:55:52.212Z,99776.48
2022-08-05T02:56:29.607Z,99776.94
2022-08-05T02:58:11.319Z,99782.21
2022-08-05T02:58:43.610Z,99774.74
2022-08-05T02:59:50.277Z,99775.33
2022-08-05T03:00:53.805Z,99767.03
2022-08-05T03:01:57.483Z,99771.11
2022-08-05T03:03:01.335Z,99766.41
2022-08-05T03:04:13.925Z,99768.56
2022-08-05T03:05:12.293Z,99773.56
2022-08-05T03:06:54.111Z,99763.59
2022-08-05T03:07:40.627Z,99769.72
2022-08-05T03:08:27.077Z,99770.68
2022-08-05T03:09:37.687Z,99770.92
2022-08-05T03:10:35.030Z,99775.00
2022-08-05T03:11:56.215Z,99776.41
2022-08-05T03:12:44.880Z,99774.59
2022-08-05T03:13:51.438Z,99781.10
2022-08-05T03:14:54.123Z,99776.59
2022-08-05T03:15:58.100Z,99780.80
2022-08-05T03:17:00.890Z,99780.52
2022-08-05T03:18:03.208Z,99779.42
2022-08-05T03:19:17.179Z,99781.38
2022-08-05T03:20:11.536Z,99780.19
2022-08-05T03:21:16.459Z,99781.25
2022-08-05T03:22:32.242Z,99780.70
2022-08-05T03:23:24.267Z,99770.14
2022-08-05T03:24:29.920Z,99774.70
2022-08-05T03:26:05.120Z,99768.19
2022-08-05T03:26:36.968Z,99772.16
2022-08-05T03:27:39.409Z,99769.62
2022-08-05T03:28:43.446Z,99773.23
2022-08-05T03:30:07.394Z,99773.47
2022-08-05T03:30:50.868Z,99777.66
2022-08-05T03:31:57.107Z,99779.12
2022-08-05T03:32:59.962Z,99775.52
2022-08-05T03:34:04.059Z,99786.73
2022-08-05T03:35:09.023Z,99785.88
2022-08-05T03:36:12.298Z,99787.48
2022-08-05T03:37:14.757Z,99778.38
2022-08-05T03:38:17.188Z,99777.66
2022-08-05T03:39:27.013Z,99781.25
2022-08-05T03:40:31.963Z,99783.06
2022-08-05T03:41:32.958Z,99775.97
2022-08-05T03:42:52.102Z,99778.61
2022-08-05T03:44:08.731Z,99778.30
2022-08-05T03:44:42.434Z,99781.05
2022-08-05T03:45:57.682Z,99773.02
2022-08-05T03:46:49.223Z,99774.78
2022-08-05T03:47:51.479Z,99774.78
2022-08-05T03:48:54.242Z,99771.19
2022-08-05T03:49:57.311Z,99776.19
2022-08-05T03:52:38.509Z,99789.73
2022-08-05T03:52:38.841Z,99774.28
2022-08-05T03:55:06.979Z,99785.73
2022-08-05T03:55:53.477Z,99781.82
2022-08-05T03:56:11.591Z,99789.55
2022-08-05T03:57:00.657Z,99792.26
2022-08-05T03:58:06.406Z,99794.66
2022-08-05T03:59:20.355Z,99790.92
2022-08-05T04:00:24.818Z,99793.42
2022-08-05T04:01:32.523Z,99790.55
2022-08-05T04:02:45.231Z,99791.95
2022-08-05T04:04:05.371Z,99790.75
2022-08-05T04:04:51.338Z,99791.70
2022-08-05T04:05:57.647Z,99792.73
2022-08-05T04:07:01.276Z,99787.32
2022-08-05T04:08:30.127Z,99786.98
2022-08-05T04:09:14.096Z,99790.34
2022-08-05T04:10:20.174Z,99793.18
2022-08-05T04:11:22.967Z,99797.81
2022-08-05T04:12:25.624Z,99791.36
2022-08-05T04:13:50.590Z,99796.95
2022-08-05T04:14:33.624Z,99790.18
2022-08-05T04:15:36.698Z,99791.42
2022-08-05T04:16:39.282Z,99788.30
2022-08-05T04:17:56.308Z,99788.96
2022-08-05T04:18:47.590Z,99796.36
2022-08-05T04:19:54.228Z,99795.02
2022-08-05T04:20:56.671Z,99793.06
2022-08-05T04:22:09.131Z,99795.33
2022-08-05T04:23:03.900Z,99790.63
2022-08-05T04:24:08.917Z,99790.10
2022-08-05T04:25:11.045Z,99795.58
2022-08-05T04:26:14.251Z,99793.45
2022-08-05T04:27:16.640Z,99781.49
2022-08-05T04:28:21.405Z,99776.79
2022-08-05T04:29:27.249Z,99784.82
2022-08-05T04:30:29.924Z,99787.46
2022-08-05T04:31:38.800Z,99778.95
2022-08-05T04:32:39.574Z,99778.58
2022-08-05T04:34:17.344Z,99774.78
2022-08-05T04:34:47.730Z,99778.13
2022-08-05T04:36:11.364Z,99778.38
2022-08-05T04:36:54.104Z,99771.17
2022-08-05T04:38:01.405Z,99780.97
2022-08-05T04:39:00.580Z,99773.23
2022-08-05T04:40:03.732Z,99777.02
2022-08-05T04:41:05.955Z,99776.34
2022-08-05T04:42:09.953Z,99769.42
2022-08-05T04:43:16.688Z,99772.95
2022-08-05T04:44:21.255Z,99773.38
2022-08-05T04:45:48.497Z,99783.20
2022-08-05T04:46:28.300Z,99790.44
2022-08-05T04:47:31.277Z,99790.72
2022-08-05T04:48:36.347Z,99798.66
2022-08-05T04:50:02.685Z,99793.99
2022-08-05T04:51:02.717Z,99793.48
2022-08-05T04:51:49.334Z,99795.90
2022-08-05T04:52:53.436Z,99790.74
2022-08-05T04:53:56.763Z,99786.58
2022-08-05T04:54:58.956Z,99791.92
2022-08-05T04:56:33.068Z,99786.63
2022-08-05T04:57:07.632Z,99786.63
2022-08-05T04:58:12.510Z,99790.50
2022-08-05T04:59:24.315Z,99795.53
2022-08-05T05:00:19.493Z,99798.85
2022-08-05T05:02:05.471Z,99796.77
2022-08-05T05:02:37.345Z,99795.66
2022-08-05T05:03:41.694Z,99794.98
2022-08-05T05:04:38.241Z,99799.85
2022-08-05T05:06:39.381Z,99808.32
2022-08-05T05:06:51.924Z,99799.98
2022-08-05T05:07:56.221Z,99801.95
2022-08-05T05:08:53.234Z,99804.59
2022-08-05T05:09:57.228Z,99803.59
2022-08-05T05:10:59.315Z,99809.44
2022-08-05T05:12:02.956Z,99809.73
2022-08-05T05:13:05.238Z,99804.84
2022-08-05T05:14:08.677Z,99806.91
2022-08-05T05:15:11.108Z,99814.12
2022-08-05T05:16:13.895Z,99811.73
2022-08-05T05:17:23.307Z,99808.80
2022-08-05T05:18:31.264Z,99813.13
2022-08-05T05:19:36.202Z,99814.52
2022-08-05T05:20:31.730Z,99808.97
2022-08-05T05:21:33.964Z,99808.97
2022-08-05T05:22:40.987Z,99808.55
2022-08-05T05:24:04.075Z,99811.88
2022-08-05T05:24:57.302Z,99808.01
2022-08-05T05:25:53.087Z,99806.61
2022-08-05T05:26:56.836Z,99808.17
2022-08-05T05:27:59.206Z,99805.78
2022-08-05T05:29:02.169Z,99810.67
2022-08-05T05:30:06.277Z,99809.70
2022-08-05T05:31:10.285Z,99810.27
2022-08-05T05:32:15.625Z,99807.08
2022-08-05T05:33:17.561Z,99820.02
2022-08-05T05:34:26.593Z,99810.53
2022-08-05T05:35:24.035Z,99810.53
2022-08-05T05:36:28.794Z,99815.81
2022-08-05T05:37:40.539Z,99821.11
2022-08-05T05:38:35.627Z,99813.88
2022-08-05T05:39:37.891Z,99817.24
2022-08-05T05:40:47.936Z,99820.14
2022-08-05T05:41:45.491Z,99817.75
2022-08-05T05:42:50.285Z,99822.78
2022-08-05T05:43:57.598Z,99833.22
2022-08-05T05:44:59.439Z,99819.73
2022-08-05T05:46:01.302Z,99825.29
2022-08-05T05:47:21.876Z,99823.75
2022-08-05T05:48:09.037Z,99826.40
2022-08-05T05:49:22.677Z,99815.81
2022-08-05T05:50:19.745Z,99823.05
2022-08-05T05:51:23.390Z,99826.94
2022-08-05T05:52:29.924Z,99822.36
2022-08-05T05:53:29.699Z,99814.45
2022-08-05T05:54:35.108Z,99821.98
2022-08-05T05:55:51.909Z,99822.66
2022-08-05T05:56:42.473Z,99825.59
2022-08-05T05:57:52.601Z,99817.24
2022-08-05T05:58:51.326Z,99821.11
2022-08-05T05:59:55.240Z,99822.20
2022-08-05T06:01:13.093Z,99826.53
2022-08-05T06:02:04.314Z,99827.07
2022-08-05T06:03:39.786Z,99827.64
2022-08-05T06:04:12.724Z,99827.07
2022-08-05T06:05:17.219Z,99823.81
2022-08-05T06:06:20.039Z,99817.42
2022-08-05T06:07:24.483Z,99819.38
2022-08-05T06:08:31.490Z,99821.06
2022-08-05T06:09:52.612Z,99824.95
2022-08-05T06:10:52.412Z,99820.52
2022-08-05T06:11:41.689Z,99826.69
2022-08-05T06:12:46.918Z,99820.85
2022-08-05T06:13:50.401Z,99821.69
2022-08-05T06:14:53.377Z,99818.39
2022-08-05T06:16:30.749Z,99822.02
2022-08-05T06:17:24.567Z,99824.92
2022-08-05T06:18:06.415Z,99818.81
2022-08-05T06:19:09.696Z,99816.17
2022-08-05T06:20:18.862Z,99817.28
2022-08-05T06:21:18.953Z,99822.58
2022-08-05T06:22:26.708Z,99826.90
2022-08-05T06:23:32.230Z,99828.28
2022-08-05T06:24:33.542Z,99826.34
2022-08-05T06:26:12.258Z,99823.17
2022-08-05T06:26:51.390Z,99823.17
2022-08-05T06:28:10.966Z,99823.44
2022-08-05T06:28:49.580Z,99830.97
2022-08-05T06:30:05.995Z,99829.44
2022-08-05T06:30:56.531Z,99824.67
2022-08-05T06:31:59.438Z,99825.63
2022-08-05T06:33:01.999Z,99831.75
2022-08-05T06:34:07.156Z,99826.33
2022-08-05T06:35:15.258Z,99825.88
2022-08-05T06:36:13.695Z,99828.53
2022-08-05T06:37:17.623Z,99834.27
2022-08-05T06:38:36.013Z,99830.36
2022-08-05T06:39:27.891Z,99826.20
2022-08-05T06:40:32.653Z,99828.69
2022-08-05T06:41:34.743Z,99830.50
2022-08-05T06:42:39.923Z,99828.90
2022-08-05T06:43:58.653Z,99829.33
2022-08-05T06:44:49.240Z,99829.19
2022-08-05T06:46:06.376Z,99826.97
2022-08-05T06:46:56.565Z,99826.98
2022-08-05T06:48:36.686Z,99828.97
2022-08-05T06:49:05.891Z,99824.23
2022-08-05T06:50:10.040Z,99826.19
2022-08-05T06:51:23.908Z,99829.23
2022-08-05T06:52:36.823Z,99831.61
2022-08-05T06:53:27.807Z,99826.44
2022-08-05T06:54:26.412Z,99832.44
2022-08-05T06:55:30.407Z,99831.17
2022-08-05T06:56:35.242Z,99834.53
2022-08-05T06:58:03.259Z,99834.27
2022-08-05T06:58:43.386Z,99837.05
2022-08-05T06:59:48.478Z,99834.39
2022-08-05T07:00:51.290Z,99836.52
2022-08-05T07:01:53.577Z,99839.02
2022-08-05T07:02:55.751Z,99837.61
2022-08-05T07:03:58.007Z,99841.11
2022-08-05T07:05:02.833Z,99837.61
2022-08-05T07:06:14.459Z,99836.55
2022-08-05T07:07:11.843Z,99842.67
2022-08-05T07:08:16.388Z,99843.38
2022-08-05T07:09:18.727Z,99842.91
2022-08-05T07:10:23.038Z,99842.23
2022-08-05T07:11:26.920Z,99847.70
2022-08-05T07:12:28.941Z,99852.14
2022-08-05T07:13:59.589Z,99853.56
2022-08-05T07:14:38.851Z,99847.55
2022-08-05T07:16:00.938Z,99855.48
2022-08-05T07:17:57.054Z,99851.30
2022-08-05T07:18:01.492Z,99848.22
2022-08-05T07:18:53.924Z,99848.22
2022-08-05T07:21:04.632Z,99853.64
2022-08-05T07:22:05.711Z,99862.14
2022-08-05T07:23:13.000Z,99849.88
2022-08-05T07:24:14.841Z,99851.00
2022-08-05T07:25:54.018Z,99855.02
2022-08-05T07:26:24.964Z,99850.69
2022-08-05T07:27:27.394Z,99852.37
2022-08-05T07:28:29.512Z,99852.22
2022-08-05T07:30:24.331Z,99852.09
2022-08-05T07:30:39.149Z,99851.13
2022-08-05T07:31:55.091Z,99852.77
2022-08-05T07:32:46.028Z,99850.12
2022-08-05T07:33:50.038Z,99844.55
2022-08-05T07:34:57.742Z,99846.92
2022-08-05T07:36:19.543Z,99851.52
2022-08-05T07:37:03.258Z,99841.74
2022-08-05T07:38:05.536Z,99840.64
2022-08-05T07:39:24.857Z,99846.92
2022-08-05T07:40:26.733Z,99836.32
2022-08-05T07:42:13.794Z,99848.47
2022-08-05T07:42:31.779Z,99847.47
2022-08-05T07:43:31.982Z,99837.30
2022-08-05T07:44:37.026Z,99844.00
2022-08-05T07:45:56.682Z,99840.64
2022-08-05T07:46:49.342Z,99851.80
2022-08-05T07:47:52.380Z,99854.29
2022-08-05T07:49:01.471Z,99846.27
2022-08-05T07:50:06.664Z,99845.73
2022-08-05T07:51:08.579Z,99855.06
2022-08-05T07:52:12.154Z,99855.46
2022-08-05T07:53:14.634Z,99858.41
2022-08-05T07:54:16.753Z,99852.14
2022-08-05T07:56:05.813Z,99853.52
2022-08-05T07:57:00.692Z,99851.02
2022-08-05T07:57:52.286Z,99854.62
2022-08-05T07:58:58.564Z,99860.45
2022-08-05T07:59:40.055Z,99854.72
2022-08-05T08:00:41.557Z,99852.19
2022-08-05T08:01:52.328Z,99856.48
2022-08-05T08:03:13.932Z,99855.08
2022-08-05T08:03:52.754Z,99852.70
2022-08-05T08:04:55.654Z,99853.52
2022-08-05T08:05:57.745Z,99858.08
2022-08-05T08:07:01.613Z,99856.93
2022-08-05T08:08:05.642Z,99857.01
2022-08-05T08:09:09.630Z,99857.70
2022-08-05T08:10:12.597Z,99850.13
2022-08-05T08:11:16.780Z,99857.94
2022-08-05T08:12:35.035Z,99856.83
2022-08-05T08:13:28.963Z,99855.41
2022-08-05T08:14:29.515Z,99861.82
2022-08-05T08:16:50.015Z,99860.72
2022-08-05T08:16:51.056Z,99866.56
2022-08-05T08:17:49.789Z,99859.73
2022-08-05T08:18:51.250Z,99861.95
2022-08-05T08:20:43.838Z,99859.99
2022-08-05T08:21:03.814Z,99866.91
2022-08-05T08:22:06.551Z,99864.53
2022-08-05T08:23:59.976Z,99865.45
2022-08-05T08:24:15.108Z,99857.94
2022-08-05T08:25:17.965Z,99860.09
2022-08-05T08:26:26.926Z,99858.88
2022-08-05T08:27:35.752Z,99857.20
2022-08-05T08:28:36.104Z,99858.78
2022-08-05T08:30:03.621Z,99857.20
2022-08-05T08:30:47.850Z,99854.46
2022-08-05T08:31:46.576Z,99859.48
2022-08-05T08:32:51.617Z,99863.87
2022-08-05T08:33:55.789Z,99861.02
2022-08-05T08:34:58.451Z,99868.28
2022-08-05T08:36:29.560Z,99867.39
2022-08-05T08:37:06.198Z,99861.38
2022-08-05T08:38:11.867Z,99866.78
2022-08-05T08:39:15.435Z,99869.03
2022-08-05T08:40:18.342Z,99868.16
2022-08-05T08:41:26.145Z,99866.84
2022-08-05T08:42:34.247Z,99871.05
2022-08-05T08:45:17.009Z,99877.15
2022-08-05T08:45:18.560Z,99872.06
2022-08-05T08:45:49.036Z,99873.24
2022-08-05T08:46:53.963Z,99868.67
2022-08-05T08:48:07.080Z,99870.01
2022-08-05T08:50:22.457Z,99873.36
2022-08-05T08:50:30.469Z,99871.16
2022-08-05T08:52:02.195Z,99873.93
2022-08-05T08:52:29.296Z,99864.84
2022-08-05T08:53:37.256Z,99871.41
2022-08-05T08:54:42.111Z,99869.27
2022-08-05T08:56:03.919Z,99867.27
2022-08-05T08:56:49.860Z,99874.72
2022-08-05T08:57:58.280Z,99864.87
2022-08-05T08:58:57.526Z,99872.69
2022-08-05T09:00:00.645Z,99866.19
2022-08-05T09:01:11.079Z,99871.95
2022-08-05T09:02:12.794Z,99867.46
2022-08-05T09:03:16.298Z,99864.67
2022-08-05T09:04:20.112Z,99864.67
2022-08-05T09:05:38.482Z,99869.05
2022-08-05T09:06:30.609Z,99872.59
2022-08-05T09:07:39.381Z,99873.51
2022-08-05T09:08:40.428Z,99877.11
2022-08-05T09:09:42.412Z,99871.57
2022-08-05T09:10:46.920Z,99872.09
2022-08-05T09:11:51.051Z,99874.14
2022-08-05T09:12:54.112Z,99867.50
2022-08-05T09:14:01.046Z,99874.50
2022-08-05T09:15:05.823Z,99874.84
2022-08-05T09:16:16.752Z,99873.86
2022-08-05T09:17:40.793Z,99869.91
2022-08-05T09:18:19.633Z,99870.21
2022-08-05T09:19:21.869Z,99864.58
2022-08-05T09:20:37.924Z,99877.25
2022-08-05T09:22:23.143Z,99874.59
2022-08-05T09:23:07.569Z,99869.78
2022-08-05T09:24:10.205Z,99871.67
2022-08-05T09:25:23.883Z,99881.74
2022-08-05T09:26:22.340Z,99886.89
2022-08-05T09:28:03.848Z,99887.17
2022-08-05T09:28:42.005Z,99884.30
2022-08-05T09:29:47.596Z,99883.77
2022-08-05T09:31:03.254Z,99887.35
2022-08-05T09:32:40.632Z,99890.34
2022-08-05T09:33:15.384Z,99883.58
2022-08-05T09:34:19.006Z,99886.27
2022-08-05T09:35:27.056Z,99880.65
2022-08-05T09:36:54.726Z,99891.64
2022-08-05T09:38:16.164Z,99889.34
2022-08-05T09:39:18.154Z,99888.45
2022-08-05T09:40:11.701Z,99895.20
2022-08-05T09:41:16.224Z,99896.81
2022-08-05T09:42:23.608Z,99894.31
2022-08-05T09:43:41.087Z,99896.19
2022-08-05T09:44:40.121Z,99890.23
2022-08-05T09:46:06.959Z,99888.24
2022-08-05T09:46:51.751Z,99893.39
2022-08-05T09:47:55.813Z,99890.64
2022-08-05T09:49:08.138Z,99891.16
2022-08-05T09:50:03.497Z,99897.53
2022-08-05T09:51:14.909Z,99900.25
2022-08-05T09:52:27.074Z,99890.95
2022-08-05T09:53:53.929Z,99895.34
2022-08-05T09:54:34.898Z,99889.72
2022-08-05T09:55:57.653Z,99893.61
2022-08-05T09:56:51.401Z,99894.63
2022-08-05T09:57:47.007Z,99891.39
2022-08-05T09:59:01.122Z,99889.52
2022-08-05T10:00:17.753Z,99888.55
2022-08-05T10:01:22.458Z,99899.19
2022-08-05T10:02:34.641Z,99893.25
2022-08-05T10:03:56.750Z,99889.61
2022-08-05T10:04:41.368Z,99890.47
2022-08-05T10:05:44.604Z,99892.98
2022-08-05T10:06:58.944Z,99896.64
2022-08-05T10:08:35.913Z,99892.27
2022-08-05T10:09:27.593Z,99887.04
2022-08-05T10:10:28.266Z,99897.45
2022-08-05T10:11:31.228Z,99905.56
2022-08-05T10:12:41.057Z,99894.61
2022-08-05T10:13:48.140Z,99902.05
2022-08-05T10:14:54.402Z,99900.55
2022-08-05T10:15:56.557Z,99902.75
2022-08-05T10:17:39.826Z,99900.91
2022-08-05T10:18:20.731Z,99899.83
2022-08-05T10:20:02.708Z,99902.55
2022-08-05T10:20:35.386Z,99900.47
2022-08-05T10:21:40.136Z,99900.28
2022-08-05T10:22:48.865Z,99905.36
2022-08-05T10:23:59.688Z,99898.96
2022-08-05T10:24:51.288Z,99902.61
2022-08-05T10:25:55.910Z,99898.79
2022-08-05T10:27:00.593Z,99894.33
2022-08-05T10:28:16.818Z,99901.35
2022-08-05T10:29:09.336Z,99904.73
2022-08-05T10:31:20.867Z,99906.59
2022-08-05T10:32:53.121Z,99897.77
2022-08-05T10:32:53.683Z,99898.96
2022-08-05T10:33:28.910Z,99899.80
2022-08-05T10:34:32.147Z,99902.13
2022-08-05T10:35:40.618Z,99897.48
2022-08-05T10:36:41.279Z,99903.47
2022-08-05T10:37:45.269Z,99905.86
2022-08-05T10:38:51.297Z,99901.34
2022-08-05T10:39:59.275Z,99902.02
2022-08-05T10:41:05.576Z,99896.83
2022-08-05T10:42:15.365Z,99901.52
2022-08-05T10:43:46.295Z,99897.50
2022-08-05T10:44:50.905Z,99901.16
2022-08-05T10:45:55.979Z,99897.14
2022-08-05T10:47:03.972Z,99898.14
2022-08-05T10:48:36.062Z,99887.48
2022-08-05T10:49:48.949Z,99896.68
2022-08-05T10:51:03.286Z,99896.47
2022-08-05T10:52:19.889Z,99890.49
2022-08-05T10:53:14.928Z,99894.48
2022-08-05T10:54:28.444Z,99888.33
2022-08-05T10:55:25.081Z,99888.33
2022-08-05T10:56:29.910Z,99888.33
2022-08-05T10:57:33.881Z,99888.19
2022-08-05T10:58:50.656Z,99886.97
2022-08-05T11:00:02.517Z,99888.95
2022-08-05T11:00:55.052Z,99884.77
2022-08-05T11:02:14.532Z,99885.09
2022-08-05T11:03:25.285Z,99884.38
2022-08-05T11:04:22.885Z,99894.81
2022-08-05T11:05:29.229Z,99889.33
2022-08-05T11:06:33.096Z,99883.31
2022-08-05T11:08:01.305Z,99883.86
2022-08-05T11:09:01.414Z,99887.69
2022-08-05T11:10:09.908Z,99879.02
2022-08-05T11:11:41.984Z,99882.31
2022-08-05T11:12:42.589Z,99888.35
2022-08-05T11:13:57.706Z,99876.70
2022-08-05T11:15:21.778Z,99884.75
2022-08-05T11:16:47.962Z,99885.29
2022-08-05T11:17:58.985Z,99881.63
2022-08-05T11:18:34.859Z,99880.95
2022-08-05T11:20:16.720Z,99883.11
2022-08-05T11:20:46.371Z,99881.10
2022-08-05T11:21:49.696Z,99871.84
2022-08-05T11:22:53.918Z,99871.84
2022-08-05T11:24:04.787Z,99872.61
2022-08-05T11:26:05.669Z,99875.24
2022-08-05T11:26:43.415Z,99875.84
2022-08-05T11:27:51.821Z,99871.45
2022-08-05T11:28:54.419Z,99873.73
2022-08-05T11:30:00.360Z,99869.02
2022-08-05T11:31:08.758Z,99867.83
2022-08-05T11:32:29.833Z,99863.68
2022-08-05T11:33:46.322Z,99865.00
2022-08-05T11:34:50.737Z,99867.25
2022-08-05T11:36:07.858Z,99869.33
2022-08-05T11:36:58.945Z,99867.13
2022-08-05T11:38:28.358Z,99870.40
2022-08-05T11:39:07.888Z,99864.05
2022-08-05T11:40:11.583Z,99869.02
2022-08-05T11:41:54.811Z,99871.41
2022-08-05T11:42:28.107Z,99867.54
2022-08-05T11:44:04.644Z,99873.07
2022-08-05T11:44:52.957Z,99868.73
2022-08-05T11:46:23.439Z,99868.06
2022-08-05T11:46:58.086Z,99866.40
2022-08-05T11:47:58.710Z,99866.53
2022-08-05T11:49:02.613Z,99872.84
2022-08-05T11:50:05.902Z,99875.21
2022-08-05T11:51:08.743Z,99865.30
2022-08-05T11:52:13.875Z,99868.27
2022-08-05T11:53:18.704Z,99862.73
2022-08-05T11:54:33.143Z,99866.59
2022-08-05T11:55:36.301Z,99866.59
2022-08-05T11:56:52.249Z,99862.30
2022-08-05T11:58:09.998Z,99855.74
2022-08-05T11:58:58.613Z,99860.80
2022-08-05T12:00:00.743Z,99864.78
2022-08-05T12:01:10.519Z,99859.50
2022-08-05T12:02:29.790Z,99860.52
2022-08-05T12:03:28.548Z,99863.37
2022-08-05T12:04:26.976Z,99857.87
2022-08-05T12:05:36.080Z,99856.37
2022-08-05T12:06:36.363Z,99859.53
2022-08-05T12:08:07.901Z,99859.14
2022-08-05T12:08:54.142Z,99858.48
2022-08-05T12:10:04.415Z,99850.09
2022-08-05T12:11:06.451Z,99853.97
2022-08-05T12:12:08.839Z,99858.02
2022-08-05T12:13:17.485Z,99861.35
2022-08-05T12:14:18.714Z,99849.90
2022-08-05T12:15:38.353Z,99847.47
2022-08-05T12:16:27.976Z,99851.06
2022-08-05T12:18:04.164Z,99844.47
2022-08-05T12:18:39.612Z,99847.16
2022-08-05T12:20:27.852Z,99846.14
2022-08-05T12:20:54.542Z,99837.00
2022-08-05T12:21:57.719Z,99843.77
2022-08-05T12:23:11.281Z,99829.84
2022-08-05T12:24:20.152Z,99833.84
2022-08-05T12:25:28.227Z,99836.91
2022-08-05T12:26:36.741Z,99828.56
2022-08-05T12:27:52.757Z,99831.33
2022-08-05T12:28:43.325Z,99829.64
2022-08-05T12:30:01.249Z,99829.28
2022-08-05T12:31:06.681Z,99833.73
2022-08-05T12:32:09.719Z,99826.32
2022-08-05T12:33:27.102Z,99832.83
2022-08-05T12:34:20.444Z,99824.25
2022-08-05T12:35:22.899Z,99816.89
2022-08-05T12:36:28.708Z,99824.69
2022-08-05T12:37:31.905Z,99822.38
2022-08-05T12:38:39.659Z,99818.88
2022-08-05T12:39:42.873Z,99814.06
2022-08-05T12:40:46.393Z,99822.09
2022-08-05T12:41:58.000Z,99820.87
2022-08-05T12:43:00.001Z,99826.59
2022-08-05T12:44:11.577Z,99824.69
2022-08-05T12:45:13.745Z,99814.40
2022-08-05T12:46:29.060Z,99817.42
2022-08-05T12:47:31.576Z,99817.09
2022-08-05T12:48:39.831Z,99813.45
2022-08-05T12:50:04.374Z,99813.73
2022-08-05T12:52:09.971Z,99815.00
2022-08-05T12:52:23.788Z,99813.66
2022-08-05T12:53:37.099Z,99818.20
2022-08-05T12:54:32.559Z,99814.41